Strona główna
METAR-TAF:

METAR-TAF

Lotnisko :

Port lotniczy Akra

Akra, Ghana

Szerokość geograficzna: 05-36N, Długość geograficzna: 000-10W, wysokość: 68 m

Aktualna obserwacja pogody

Raport powstał 1 godzina i 41 minut temu, godzina 22:00 UTC
Wiatr 6 kt od zachód
Temperatura 28°C
Wilgotność 84%
Ciśnienie 1012 hPa
Widzialność 10 km lub więcej
Rozproszone chmury na wysokości 1800 ft

METAR: DGAA 272200Z 27006KT 9999 SCT018 28/25 Q1012 NOSIG

czas: 23:41 (23:41 UTC)

Prognoza

Raport powstał 41 minut temu, godzina 23:00 UTC
Prognoza ważna od 28 godzina 00 UTC do 29 godzina 06 UTC
Wiatr 5 kt od zachodnio-południowy zachód
Widzialność 10 km lub więcej
Mało chmury na wysokości 1600 ft
Przejściowo
od 28 godzina 06 UTC do 28 godzina 09 UTC
Widzialność: 5000 m
zamglenie
Stopniowe zmiany
od 28 godzina 11 UTC do 28 godzina 13 UTC
Wiatr 15 kt od południe

TAF: DGAA 272300Z 2800/2906 25005KT 9999 FEW016 TEMPO 2806/2809 5000 BR NSC BECMG 2811/2813 19015KT

Obserwacja i prognoza pogody dla ponad 4000 lotnisk (raport METAR i TAF).

Dostępne stacje oznaczono żółtymi i czerwonymi punktami na mapie.

Najedź kursorem aby zobaczyć nazwę stacji.

Kliknij aby zobaczyć obserwacje i prognozy pogody.

Aby zmienić mapę: kliknij na zielony przycisk z czarnym krzyżykiem, aby powiększyć; na zielony przycisk z myślnikiem, aby pomniejszyć; na zielone strzałki, aby przejść do map sąsiednich.


METAR-TAF: